sensor_id;sensor_type;location;lat;lon;timestamp;temperature;humidity
32522;DHT22;18963;51.504;5.316;2022-08-11T00:02:05;16.80;99.90
32522;DHT22;18963;51.504;5.316;2022-08-11T00:04:33;16.90;99.90
32522;DHT22;18963;51.504;5.316;2022-08-11T00:07:01;17.00;99.90
32522;DHT22;18963;51.504;5.316;2022-08-11T00:09:30;17.10;99.90
32522;DHT22;18963;51.504;5.316;2022-08-11T00:11:56;17.20;99.90
32522;DHT22;18963;51.504;5.316;2022-08-11T00:14:23;17.30;99.90
32522;DHT22;18963;51.504;5.316;2022-08-11T00:19:22;17.50;99.90
32522;DHT22;18963;51.504;5.316;2022-08-11T00:21:48;17.60;99.90
32522;DHT22;18963;51.504;5.316;2022-08-11T00:24:14;17.70;99.90
32522;DHT22;18963;51.504;5.316;2022-08-11T00:26:41;17.80;99.90
32522;DHT22;18963;51.504;5.316;2022-08-11T00:29:11;17.70;99.90
32522;DHT22;18963;51.504;5.316;2022-08-11T00:31:36;17.90;99.90
32522;DHT22;18963;51.504;5.316;2022-08-11T00:34:02;17.90;99.90
32522;DHT22;18963;51.504;5.316;2022-08-11T00:36:42;17.90;99.90
32522;DHT22;18963;51.504;5.316;2022-08-11T00:39:10;18.00;99.90
32522;DHT22;18963;51.504;5.316;2022-08-11T00:44:31;18.10;99.90
32522;DHT22;18963;51.504;5.316;2022-08-11T00:49:48;18.20;99.90
32522;DHT22;18963;51.504;5.316;2022-08-11T00:52:35;18.20;99.90
32522;DHT22;18963;51.504;5.316;2022-08-11T00:57:39;18.30;99.60
32522;DHT22;18963;51.504;5.316;2022-08-11T01:00:12;18.30;99.50
32522;DHT22;18963;51.504;5.316;2022-08-11T01:03:04;18.20;99.40
32522;DHT22;18963;51.504;5.316;2022-08-11T01:41:49;17.70;99.90
32522;DHT22;18963;51.504;5.316;2022-08-11T01:50:07;17.40;99.90
32522;DHT22;18963;51.504;5.316;2022-08-11T01:52:38;17.30;99.90
32522;DHT22;18963;51.504;5.316;2022-08-11T01:58:05;17.10;99.90
32522;DHT22;18963;51.504;5.316;2022-08-11T02:00:34;16.90;99.90
32522;DHT22;18963;51.504;5.316;2022-08-11T02:03:09;16.80;99.90
32522;DHT22;18963;51.504;5.316;2022-08-11T02:05:54;16.70;99.90
32522;DHT22;18963;51.504;5.316;2022-08-11T02:10:54;16.50;99.90
32522;DHT22;18963;51.504;5.316;2022-08-11T02:13:48;16.40;99.90
32522;DHT22;18963;51.504;5.316;2022-08-11T02:18:43;16.20;99.90
32522;DHT22;18963;51.504;5.316;2022-08-11T02:21:30;16.30;99.90
32522;DHT22;18963;51.504;5.316;2022-08-11T02:24:27;16.20;99.90
32522;DHT22;18963;51.504;5.316;2022-08-11T02:26:59;16.10;99.90
32522;DHT22;18963;51.504;5.316;2022-08-11T02:50:15;16.40;99.90
32522;DHT22;18963;51.504;5.316;2022-08-11T02:52:50;16.50;99.90
32522;DHT22;18963;51.504;5.316;2022-08-11T02:57:57;16.60;99.90
32522;DHT22;18963;51.504;5.316;2022-08-11T03:00:23;16.70;99.90
32522;DHT22;18963;51.504;5.316;2022-08-11T03:10:34;16.80;99.90
32522;DHT22;18963;51.504;5.316;2022-08-11T03:13:09;16.80;99.90
32522;DHT22;18963;51.504;5.316;2022-08-11T03:16:15;16.80;99.90
32522;DHT22;18963;51.504;5.316;2022-08-11T03:19:13;16.80;99.90
32522;DHT22;18963;51.504;5.316;2022-08-11T03:24:29;16.80;99.90
32522;DHT22;18963;51.504;5.316;2022-08-11T03:26:57;16.70;99.90
32522;DHT22;18963;51.504;5.316;2022-08-11T03:29:43;16.70;99.90
32522;DHT22;18963;51.504;5.316;2022-08-11T03:34:44;16.70;99.90
32522;DHT22;18963;51.504;5.316;2022-08-11T03:43:18;16.40;99.90
32522;DHT22;18963;51.504;5.316;2022-08-11T03:45:56;16.30;99.90
32522;DHT22;18963;51.504;5.316;2022-08-11T03:51:14;16.30;99.90
32522;DHT22;18963;51.504;5.316;2022-08-11T03:56:34;16.10;99.90
32522;DHT22;18963;51.504;5.316;2022-08-11T04:22:36;16.00;99.90
32522;DHT22;18963;51.504;5.316;2022-08-11T04:30:20;16.10;99.90
32522;DHT22;18963;51.504;5.316;2022-08-11T04:40:55;16.30;99.90
32522;DHT22;18963;51.504;5.316;2022-08-11T04:57:50;16.30;99.90
32522;DHT22;18963;51.504;5.316;2022-08-11T05:00:54;16.40;99.90
32522;DHT22;18963;51.504;5.316;2022-08-11T05:11:34;16.50;99.90
32522;DHT22;18963;51.504;5.316;2022-08-11T05:16:54;16.80;99.90
32522;DHT22;18963;51.504;5.316;2022-08-11T05:19:44;16.80;99.90
32522;DHT22;18963;51.504;5.316;2022-08-11T05:22:28;17.10;99.90
32522;DHT22;18963;51.504;5.316;2022-08-11T05:25:16;17.30;99.90
32522;DHT22;18963;51.504;5.316;2022-08-11T05:28:04;17.50;99.90
32522;DHT22;18963;51.504;5.316;2022-08-11T05:30:49;17.70;99.90
32522;DHT22;18963;51.504;5.316;2022-08-11T05:33:47;17.90;99.90
32522;DHT22;18963;51.504;5.316;2022-08-11T05:39:02;18.30;99.90
32522;DHT22;18963;51.504;5.316;2022-08-11T05:41:46;18.50;99.90
32522;DHT22;18963;51.504;5.316;2022-08-11T05:44:31;18.70;99.90
32522;DHT22;18963;51.504;5.316;2022-08-11T05:47:24;18.90;99.90
32522;DHT22;18963;51.504;5.316;2022-08-11T05:50:09;19.10;99.90
32522;DHT22;18963;51.504;5.316;2022-08-11T05:52:54;19.20;99.90
32522;DHT22;18963;51.504;5.316;2022-08-11T05:55:40;19.40;99.80
32522;DHT22;18963;51.504;5.316;2022-08-11T05:58:24;19.60;99.40
32522;DHT22;18963;51.504;5.316;2022-08-11T06:00:49;19.80;98.90
32522;DHT22;18963;51.504;5.316;2022-08-11T06:03:24;20.00;98.50
32522;DHT22;18963;51.504;5.316;2022-08-11T06:05:50;20.10;98.40
32522;DHT22;18963;51.504;5.316;2022-08-11T06:08:15;20.30;97.70
32522;DHT22;18963;51.504;5.316;2022-08-11T06:10:42;20.50;97.20
32522;DHT22;18963;51.504;5.316;2022-08-11T06:13:08;20.60;97.40
32522;DHT22;18963;51.504;5.316;2022-08-11T06:15:42;20.80;96.50
32522;DHT22;18963;51.504;5.316;2022-08-11T06:18:09;21.00;95.50
32522;DHT22;18963;51.504;5.316;2022-08-11T06:20:46;21.00;95.40
32522;DHT22;18963;51.504;5.316;2022-08-11T06:23:11;21.10;95.30
32522;DHT22;18963;51.504;5.316;2022-08-11T06:25:39;21.20;95.10
32522;DHT22;18963;51.504;5.316;2022-08-11T06:28:05;21.40;95.20
32522;DHT22;18963;51.504;5.316;2022-08-11T06:30:32;21.60;94.40
32522;DHT22;18963;51.504;5.316;2022-08-11T06:32:59;21.80;94.10
32522;DHT22;18963;51.504;5.316;2022-08-11T06:43:36;22.50;92.20
32522;DHT22;18963;51.504;5.316;2022-08-11T06:46:10;22.70;91.80
32522;DHT22;18963;51.504;5.316;2022-08-11T06:48:37;22.80;91.10
32522;DHT22;18963;51.504;5.316;2022-08-11T06:51:06;23.00;90.70
32522;DHT22;18963;51.504;5.316;2022-08-11T06:53:41;23.00;90.50
32522;DHT22;18963;51.504;5.316;2022-08-11T06:56:08;23.30;90.30
32522;DHT22;18963;51.504;5.316;2022-08-11T06:58:53;23.50;90.50
32522;DHT22;18963;51.504;5.316;2022-08-11T07:04:06;24.30;89.30
32522;DHT22;18963;51.504;5.316;2022-08-11T07:09:27;25.00;86.10
32522;DHT22;18963;51.504;5.316;2022-08-11T07:12:16;25.30;84.00
32522;DHT22;18963;51.504;5.316;2022-08-11T07:15:05;25.60;82.50
32522;DHT22;18963;51.504;5.316;2022-08-11T07:17:52;26.10;81.00
32522;DHT22;18963;51.504;5.316;2022-08-11T07:20:39;26.40;78.60
32522;DHT22;18963;51.504;5.316;2022-08-11T07:23:24;26.60;77.30
32522;DHT22;18963;51.504;5.316;2022-08-11T07:26:08;26.50;74.70
32522;DHT22;18963;51.504;5.316;2022-08-11T07:28:52;26.40;73.20
32522;DHT22;18963;51.504;5.316;2022-08-11T07:31:20;26.40;73.70
32522;DHT22;18963;51.504;5.316;2022-08-11T07:33:49;26.60;73.90
32522;DHT22;18963;51.504;5.316;2022-08-11T07:36:16;26.60;71.80
32522;DHT22;18963;51.504;5.316;2022-08-11T07:38:43;26.70;73.00
32522;DHT22;18963;51.504;5.316;2022-08-11T07:41:11;26.80;71.20
32522;DHT22;18963;51.504;5.316;2022-08-11T07:43:41;26.90;71.30
32522;DHT22;18963;51.504;5.316;2022-08-11T07:46:07;27.10;71.10
32522;DHT22;18963;51.504;5.316;2022-08-11T07:48:53;27.20;70.30
32522;DHT22;18963;51.504;5.316;2022-08-11T07:51:38;27.50;68.50
32522;DHT22;18963;51.504;5.316;2022-08-11T07:54:23;27.70;68.40
32522;DHT22;18963;51.504;5.316;2022-08-11T07:56:49;28.00;66.80
32522;DHT22;18963;51.504;5.316;2022-08-11T07:59:15;28.30;66.20
32522;DHT22;18963;51.504;5.316;2022-08-11T08:02:00;28.60;64.50
32522;DHT22;18963;51.504;5.316;2022-08-11T08:04:44;28.70;63.30
32522;DHT22;18963;51.504;5.316;2022-08-11T08:07:28;28.80;61.40
32522;DHT22;18963;51.504;5.316;2022-08-11T08:10:13;29.10;62.40
32522;DHT22;18963;51.504;5.316;2022-08-11T08:12:59;29.30;58.60
32522;DHT22;18963;51.504;5.316;2022-08-11T08:15:44;29.30;59.20
32522;DHT22;18963;51.504;5.316;2022-08-11T08:18:28;29.40;59.00
32522;DHT22;18963;51.504;5.316;2022-08-11T08:20:57;29.70;57.70
32522;DHT22;18963;51.504;5.316;2022-08-11T08:23:37;30.00;56.60
32522;DHT22;18963;51.504;5.316;2022-08-11T08:26:06;30.10;55.90
32522;DHT22;18963;51.504;5.316;2022-08-11T08:28:51;30.10;54.10
32522;DHT22;18963;51.504;5.316;2022-08-11T08:31:17;30.10;55.70
32522;DHT22;18963;51.504;5.316;2022-08-11T08:33:43;30.00;54.90
32522;DHT22;18963;51.504;5.316;2022-08-11T08:36:09;30.30;54.60
32522;DHT22;18963;51.504;5.316;2022-08-11T08:38:45;30.70;52.90
32522;DHT22;18963;51.504;5.316;2022-08-11T08:41:11;30.80;51.20
32522;DHT22;18963;51.504;5.316;2022-08-11T08:43:37;30.60;51.40
32522;DHT22;18963;51.504;5.316;2022-08-11T08:46:03;31.00;51.80
32522;DHT22;18963;51.504;5.316;2022-08-11T08:48:32;31.20;51.00
32522;DHT22;18963;51.504;5.316;2022-08-11T08:51:01;31.50;50.60
32522;DHT22;18963;51.504;5.316;2022-08-11T08:53:47;31.50;50.70
32522;DHT22;18963;51.504;5.316;2022-08-11T08:56:13;31.30;50.20
32522;DHT22;18963;51.504;5.316;2022-08-11T08:58:39;31.30;49.50
32522;DHT22;18963;51.504;5.316;2022-08-11T09:01:07;31.10;49.80
32522;DHT22;18963;51.504;5.316;2022-08-11T09:03:37;31.20;49.60
32522;DHT22;18963;51.504;5.316;2022-08-11T09:06:03;31.20;50.10
32522;DHT22;18963;51.504;5.316;2022-08-11T09:08:29;31.30;50.80
32522;DHT22;18963;51.504;5.316;2022-08-11T09:10:55;31.70;50.00
32522;DHT22;18963;51.504;5.316;2022-08-11T09:13:40;31.70;49.00
32522;DHT22;18963;51.504;5.316;2022-08-11T09:16:08;31.50;49.50
32522;DHT22;18963;51.504;5.316;2022-08-11T09:18:34;31.60;49.50
32522;DHT22;18963;51.504;5.316;2022-08-11T09:21:01;31.60;49.60
32522;DHT22;18963;51.504;5.316;2022-08-11T09:23:27;31.70;49.30
32522;DHT22;18963;51.504;5.316;2022-08-11T09:26:11;32.30;49.20
32522;DHT22;18963;51.504;5.316;2022-08-11T09:28:55;32.50;48.40
32522;DHT22;18963;51.504;5.316;2022-08-11T09:31:21;32.80;47.50
32522;DHT22;18963;51.504;5.316;2022-08-11T09:33:47;32.50;47.70
32522;DHT22;18963;51.504;5.316;2022-08-11T09:36:15;32.30;46.60
32522;DHT22;18963;51.504;5.316;2022-08-11T09:39:01;32.00;47.00
32522;DHT22;18963;51.504;5.316;2022-08-11T09:41:45;32.20;46.30
32522;DHT22;18963;51.504;5.316;2022-08-11T09:44:11;32.20;46.50
32522;DHT22;18963;51.504;5.316;2022-08-11T09:46:56;32.30;45.30
32522;DHT22;18963;51.504;5.316;2022-08-11T09:49:23;32.40;45.90
32522;DHT22;18963;51.504;5.316;2022-08-11T09:51:49;32.40;45.40
32522;DHT22;18963;51.504;5.316;2022-08-11T09:54:15;32.50;46.10
32522;DHT22;18963;51.504;5.316;2022-08-11T09:56:42;32.70;45.20
32522;DHT22;18963;51.504;5.316;2022-08-11T09:59:26;32.30;45.30
32522;DHT22;18963;51.504;5.316;2022-08-11T10:01:54;32.30;45.50
32522;DHT22;18963;51.504;5.316;2022-08-11T10:07:05;32.60;46.00
32522;DHT22;18963;51.504;5.316;2022-08-11T10:12:03;33.00;45.80
32522;DHT22;18963;51.504;5.316;2022-08-11T10:14:30;33.00;44.70
32522;DHT22;18963;51.504;5.316;2022-08-11T10:17:15;33.00;44.80
32522;DHT22;18963;51.504;5.316;2022-08-11T10:19:41;33.00;43.70
32522;DHT22;18963;51.504;5.316;2022-08-11T10:22:07;33.50;44.10
32522;DHT22;18963;51.504;5.316;2022-08-11T10:24:52;33.90;43.50
32522;DHT22;18963;51.504;5.316;2022-08-11T10:27:37;33.90;43.00
32522;DHT22;18963;51.504;5.316;2022-08-11T10:30:05;33.90;42.60
32522;DHT22;18963;51.504;5.316;2022-08-11T10:32:50;33.80;42.10
32522;DHT22;18963;51.504;5.316;2022-08-11T10:35:35;33.90;42.80
32522;DHT22;18963;51.504;5.316;2022-08-11T10:38:01;34.50;42.60
32522;DHT22;18963;51.504;5.316;2022-08-11T10:40:27;34.40;41.60
32522;DHT22;18963;51.504;5.316;2022-08-11T10:42:54;34.20;41.20
32522;DHT22;18963;51.504;5.316;2022-08-11T10:45:41;34.20;41.60
32522;DHT22;18963;51.504;5.316;2022-08-11T10:48:25;34.00;41.20
32522;DHT22;18963;51.504;5.316;2022-08-11T10:50:52;34.20;41.50
32522;DHT22;18963;51.504;5.316;2022-08-11T10:53:37;34.30;40.90
32522;DHT22;18963;51.504;5.316;2022-08-11T10:56:22;34.60;41.30
32522;DHT22;18963;51.504;5.316;2022-08-11T10:59:07;34.70;41.30
32522;DHT22;18963;51.504;5.316;2022-08-11T11:01:39;34.90;41.00
32522;DHT22;18963;51.504;5.316;2022-08-11T11:04:06;35.40;41.10
32522;DHT22;18963;51.504;5.316;2022-08-11T11:06:58;36.00;39.40
32522;DHT22;18963;51.504;5.316;2022-08-11T11:09:32;36.40;39.00
32522;DHT22;18963;51.504;5.316;2022-08-11T11:11:59;36.20;38.70
32522;DHT22;18963;51.504;5.316;2022-08-11T11:14:44;35.90;38.50
32522;DHT22;18963;51.504;5.316;2022-08-11T11:17:34;35.80;39.30
32522;DHT22;18963;51.504;5.316;2022-08-11T11:20:48;35.90;38.70
32522;DHT22;18963;51.504;5.316;2022-08-11T11:23:17;36.20;38.70
32522;DHT22;18963;51.504;5.316;2022-08-11T11:36:44;36.90;35.50
32522;DHT22;18963;51.504;5.316;2022-08-11T11:39:11;36.60;35.10
32522;DHT22;18963;51.504;5.316;2022-08-11T11:41:37;37.00;34.90
32522;DHT22;18963;51.504;5.316;2022-08-11T11:44:03;37.30;34.50
32522;DHT22;18963;51.504;5.316;2022-08-11T11:46:28;37.60;34.80
32522;DHT22;18963;51.504;5.316;2022-08-11T11:48:54;37.60;33.90
32522;DHT22;18963;51.504;5.316;2022-08-11T11:51:21;37.60;33.60
32522;DHT22;18963;51.504;5.316;2022-08-11T11:53:46;37.70;33.60
32522;DHT22;18963;51.504;5.316;2022-08-11T11:56:12;37.60;33.50
32522;DHT22;18963;51.504;5.316;2022-08-11T11:58:38;37.80;33.40
32522;DHT22;18963;51.504;5.316;2022-08-11T12:01:23;38.30;33.10
32522;DHT22;18963;51.504;5.316;2022-08-11T12:03:50;38.00;32.80
32522;DHT22;18963;51.504;5.316;2022-08-11T12:06:17;38.20;33.20
32522;DHT22;18963;51.504;5.316;2022-08-11T12:08:44;38.60;32.80
32522;DHT22;18963;51.504;5.316;2022-08-11T12:11:12;38.40;32.30
32522;DHT22;18963;51.504;5.316;2022-08-11T12:14:02;38.80;31.90
32522;DHT22;18963;51.504;5.316;2022-08-11T12:16:28;39.50;32.00
32522;DHT22;18963;51.504;5.316;2022-08-11T12:18:57;39.60;31.60
32522;DHT22;18963;51.504;5.316;2022-08-11T12:21:23;39.70;31.30
32522;DHT22;18963;51.504;5.316;2022-08-11T12:23:49;39.60;31.00
32522;DHT22;18963;51.504;5.316;2022-08-11T12:26:33;39.50;31.50
32522;DHT22;18963;51.504;5.316;2022-08-11T12:29:19;39.30;31.10
32522;DHT22;18963;51.504;5.316;2022-08-11T12:31:45;38.80;30.80
32522;DHT22;18963;51.504;5.316;2022-08-11T12:34:11;38.40;31.70
32522;DHT22;18963;51.504;5.316;2022-08-11T12:36:56;38.00;31.50
32522;DHT22;18963;51.504;5.316;2022-08-11T12:39:23;37.00;32.10
32522;DHT22;18963;51.504;5.316;2022-08-11T12:42:09;36.40;33.20
32522;DHT22;18963;51.504;5.316;2022-08-11T12:44:54;35.60;33.30
32522;DHT22;18963;51.504;5.316;2022-08-11T12:47:39;34.90;34.10
32522;DHT22;18963;51.504;5.316;2022-08-11T12:50:25;34.50;33.70
32522;DHT22;18963;51.504;5.316;2022-08-11T12:53:10;34.30;34.50
32522;DHT22;18963;51.504;5.316;2022-08-11T12:55:36;34.10;34.60
32522;DHT22;18963;51.504;5.316;2022-08-11T12:58:21;34.00;34.30
32522;DHT22;18963;51.504;5.316;2022-08-11T13:00:47;33.80;34.40
32522;DHT22;18963;51.504;5.316;2022-08-11T13:03:32;33.70;35.00
32522;DHT22;18963;51.504;5.316;2022-08-11T13:06:18;33.40;34.80
32522;DHT22;18963;51.504;5.316;2022-08-11T13:08:44;33.20;34.70
32522;DHT22;18963;51.504;5.316;2022-08-11T13:11:10;32.90;34.50
32522;DHT22;18963;51.504;5.316;2022-08-11T13:13:54;32.80;35.00
32522;DHT22;18963;51.504;5.316;2022-08-11T13:16:28;32.60;35.00
32522;DHT22;18963;51.504;5.316;2022-08-11T13:18:55;32.50;35.30
32522;DHT22;18963;51.504;5.316;2022-08-11T13:21:21;32.40;35.00
32522;DHT22;18963;51.504;5.316;2022-08-11T13:23:53;32.20;34.70
32522;DHT22;18963;51.504;5.316;2022-08-11T13:26:23;32.00;34.90
32522;DHT22;18963;51.504;5.316;2022-08-11T13:28:49;31.90;33.40
32522;DHT22;18963;51.504;5.316;2022-08-11T13:31:15;31.80;34.60
32522;DHT22;18963;51.504;5.316;2022-08-11T13:33:42;31.70;35.40
32522;DHT22;18963;51.504;5.316;2022-08-11T13:36:09;31.70;35.60
32522;DHT22;18963;51.504;5.316;2022-08-11T13:38:35;31.70;35.20
32522;DHT22;18963;51.504;5.316;2022-08-11T13:41:01;31.70;35.70
32522;DHT22;18963;51.504;5.316;2022-08-11T13:43:47;31.70;35.30
32522;DHT22;18963;51.504;5.316;2022-08-11T13:46:12;31.60;34.30
32522;DHT22;18963;51.504;5.316;2022-08-11T13:48:45;31.60;34.50
32522;DHT22;18963;51.504;5.316;2022-08-11T13:51:11;31.50;34.60
32522;DHT22;18963;51.504;5.316;2022-08-11T13:53:56;31.50;35.00
32522;DHT22;18963;51.504;5.316;2022-08-11T13:56:22;31.40;35.70
32522;DHT22;18963;51.504;5.316;2022-08-11T13:58:48;31.40;35.90
32522;DHT22;18963;51.504;5.316;2022-08-11T14:01:14;31.40;36.20
32522;DHT22;18963;51.504;5.316;2022-08-11T14:03:40;31.40;35.70
32522;DHT22;18963;51.504;5.316;2022-08-11T14:06:06;31.40;35.00
32522;DHT22;18963;51.504;5.316;2022-08-11T14:08:34;31.30;34.60
32522;DHT22;18963;51.504;5.316;2022-08-11T14:11:02;31.20;34.90
32522;DHT22;18963;51.504;5.316;2022-08-11T14:13:54;31.10;36.10
32522;DHT22;18963;51.504;5.316;2022-08-11T14:16:23;31.10;36.70
32522;DHT22;18963;51.504;5.316;2022-08-11T14:18:51;31.10;37.90
32522;DHT22;18963;51.504;5.316;2022-08-11T14:21:17;31.10;37.20
32522;DHT22;18963;51.504;5.316;2022-08-11T14:24:04;31.20;37.00
32522;DHT22;18963;51.504;5.316;2022-08-11T14:26:30;31.30;36.70
32522;DHT22;18963;51.504;5.316;2022-08-11T14:31:32;31.20;37.20
32522;DHT22;18963;51.504;5.316;2022-08-11T14:34:00;31.20;36.70
32522;DHT22;18963;51.504;5.316;2022-08-11T14:36:28;31.10;36.90
32522;DHT22;18963;51.504;5.316;2022-08-11T14:38:54;31.00;37.30
32522;DHT22;18963;51.504;5.316;2022-08-11T14:41:20;30.90;37.50
32522;DHT22;18963;51.504;5.316;2022-08-11T14:44:05;30.90;37.40
32522;DHT22;18963;51.504;5.316;2022-08-11T14:46:50;30.80;37.60
32522;DHT22;18963;51.504;5.316;2022-08-11T14:49:34;30.70;37.40
32522;DHT22;18963;51.504;5.316;2022-08-11T14:52:05;30.70;37.80
32522;DHT22;18963;51.504;5.316;2022-08-11T14:54:31;30.70;37.40
32522;DHT22;18963;51.504;5.316;2022-08-11T14:57:16;30.60;37.50
32522;DHT22;18963;51.504;5.316;2022-08-11T14:59:42;30.50;37.30
32522;DHT22;18963;51.504;5.316;2022-08-11T15:02:08;30.50;37.40
32522;DHT22;18963;51.504;5.316;2022-08-11T15:04:53;30.50;37.20
32522;DHT22;18963;51.504;5.316;2022-08-11T15:07:20;30.50;37.10
32522;DHT22;18963;51.504;5.316;2022-08-11T15:09:54;30.50;37.60
32522;DHT22;18963;51.504;5.316;2022-08-11T15:12:20;30.50;37.80
32522;DHT22;18963;51.504;5.316;2022-08-11T15:14:46;30.40;38.00
32522;DHT22;18963;51.504;5.316;2022-08-11T15:17:30;30.50;38.40
32522;DHT22;18963;51.504;5.316;2022-08-11T15:20:02;30.50;38.60
32522;DHT22;18963;51.504;5.316;2022-08-11T15:22:47;30.50;38.40
32522;DHT22;18963;51.504;5.316;2022-08-11T15:25:31;30.50;38.40
32522;DHT22;18963;51.504;5.316;2022-08-11T15:27:58;30.50;38.30
32522;DHT22;18963;51.504;5.316;2022-08-11T15:30:42;30.50;38.30
32522;DHT22;18963;51.504;5.316;2022-08-11T15:33:27;30.40;37.80
32522;DHT22;18963;51.504;5.316;2022-08-11T15:36:13;30.40;37.10
32522;DHT22;18963;51.504;5.316;2022-08-11T15:39:20;30.40;37.30
32522;DHT22;18963;51.504;5.316;2022-08-11T15:41:53;30.40;37.00
32522;DHT22;18963;51.504;5.316;2022-08-11T15:44:40;30.30;36.80
32522;DHT22;18963;51.504;5.316;2022-08-11T15:47:26;30.30;37.00
32522;DHT22;18963;51.504;5.316;2022-08-11T15:49:52;30.30;36.90
32522;DHT22;18963;51.504;5.316;2022-08-11T15:52:20;30.30;36.80
32522;DHT22;18963;51.504;5.316;2022-08-11T15:54:46;30.30;37.10
32522;DHT22;18963;51.504;5.316;2022-08-11T15:57:13;30.30;37.40
32522;DHT22;18963;51.504;5.316;2022-08-11T16:00:01;30.30;37.30
32522;DHT22;18963;51.504;5.316;2022-08-11T16:02:47;30.30;37.20
32522;DHT22;18963;51.504;5.316;2022-08-11T16:05:31;30.30;37.10
32522;DHT22;18963;51.504;5.316;2022-08-11T16:07:58;30.30;37.50
32522;DHT22;18963;51.504;5.316;2022-08-11T16:10:24;30.30;37.50
32522;DHT22;18963;51.504;5.316;2022-08-11T16:12:53;30.20;37.50
32522;DHT22;18963;51.504;5.316;2022-08-11T16:15:37;30.20;37.60
32522;DHT22;18963;51.504;5.316;2022-08-11T16:18:23;30.20;38.00
32522;DHT22;18963;51.504;5.316;2022-08-11T16:21:10;30.20;38.00
32522;DHT22;18963;51.504;5.316;2022-08-11T16:23:37;30.10;38.10
32522;DHT22;18963;51.504;5.316;2022-08-11T16:26:04;30.20;37.40
32522;DHT22;18963;51.504;5.316;2022-08-11T16:28:30;30.10;37.30
32522;DHT22;18963;51.504;5.316;2022-08-11T16:30:56;30.10;38.00
32522;DHT22;18963;51.504;5.316;2022-08-11T16:33:22;30.10;37.80
32522;DHT22;18963;51.504;5.316;2022-08-11T16:35:49;30.10;37.30
32522;DHT22;18963;51.504;5.316;2022-08-11T16:38:33;30.10;36.20
32522;DHT22;18963;51.504;5.316;2022-08-11T16:41:34;30.10;36.40
32522;DHT22;18963;51.504;5.316;2022-08-11T16:44:11;30.10;37.00
32522;DHT22;18963;51.504;5.316;2022-08-11T16:46:56;30.00;36.90
32522;DHT22;18963;51.504;5.316;2022-08-11T16:49:32;30.00;37.40
32522;DHT22;18963;51.504;5.316;2022-08-11T16:51:58;30.00;37.70
32522;DHT22;18963;51.504;5.316;2022-08-11T16:54:27;29.90;37.90
32522;DHT22;18963;51.504;5.316;2022-08-11T16:56:53;29.80;38.10
32522;DHT22;18963;51.504;5.316;2022-08-11T16:59:31;29.80;37.80
32522;DHT22;18963;51.504;5.316;2022-08-11T17:02:00;29.80;38.20
32522;DHT22;18963;51.504;5.316;2022-08-11T17:04:28;29.80;38.50
32522;DHT22;18963;51.504;5.316;2022-08-11T17:07:13;29.70;38.40
32522;DHT22;18963;51.504;5.316;2022-08-11T17:09:58;29.70;38.80
32522;DHT22;18963;51.504;5.316;2022-08-11T17:12:43;29.70;38.80
32522;DHT22;18963;51.504;5.316;2022-08-11T17:15:37;29.70;39.40
32522;DHT22;18963;51.504;5.316;2022-08-11T17:18:23;29.60;39.90
32522;DHT22;18963;51.504;5.316;2022-08-11T17:21:04;29.60;39.60
32522;DHT22;18963;51.504;5.316;2022-08-11T17:23:30;29.60;39.30
32522;DHT22;18963;51.504;5.316;2022-08-11T17:26:36;29.50;39.80
32522;DHT22;18963;51.504;5.316;2022-08-11T17:29:19;29.50;39.80
32522;DHT22;18963;51.504;5.316;2022-08-11T17:31:46;29.40;39.90
32522;DHT22;18963;51.504;5.316;2022-08-11T17:34:32;29.30;39.60
32522;DHT22;18963;51.504;5.316;2022-08-11T17:37:16;29.30;39.30
32522;DHT22;18963;51.504;5.316;2022-08-11T17:39:42;29.30;39.60
32522;DHT22;18963;51.504;5.316;2022-08-11T17:42:08;29.20;40.00
32522;DHT22;18963;51.504;5.316;2022-08-11T17:44:52;29.20;40.10
32522;DHT22;18963;51.504;5.316;2022-08-11T17:47:37;29.20;40.40
32522;DHT22;18963;51.504;5.316;2022-08-11T17:50:21;29.10;40.60
32522;DHT22;18963;51.504;5.316;2022-08-11T17:52:47;29.00;40.60
32522;DHT22;18963;51.504;5.316;2022-08-11T17:55:32;29.00;40.80
32522;DHT22;18963;51.504;5.316;2022-08-11T17:58:17;28.90;41.00
32522;DHT22;18963;51.504;5.316;2022-08-11T18:01:02;28.80;41.30
32522;DHT22;18963;51.504;5.316;2022-08-11T18:03:27;28.70;41.30
32522;DHT22;18963;51.504;5.316;2022-08-11T18:05:53;28.70;41.70
32522;DHT22;18963;51.504;5.316;2022-08-11T18:08:20;28.60;41.80
32522;DHT22;18963;51.504;5.316;2022-08-11T18:11:05;28.60;41.90
32522;DHT22;18963;51.504;5.316;2022-08-11T18:13:50;28.50;42.00
32522;DHT22;18963;51.504;5.316;2022-08-11T18:16:35;28.40;42.00
32522;DHT22;18963;51.504;5.316;2022-08-11T18:19:19;28.30;42.40
32522;DHT22;18963;51.504;5.316;2022-08-11T18:22:05;28.20;42.70
32522;DHT22;18963;51.504;5.316;2022-08-11T18:24:55;28.10;42.90
32522;DHT22;18963;51.504;5.316;2022-08-11T18:27:41;28.00;43.20
32522;DHT22;18963;51.504;5.316;2022-08-11T18:30:26;27.90;43.50
32522;DHT22;18963;51.504;5.316;2022-08-11T18:33:13;27.70;43.70
32522;DHT22;18963;51.504;5.316;2022-08-11T18:35:58;27.60;43.90
32522;DHT22;18963;51.504;5.316;2022-08-11T18:38:43;27.50;44.10
32522;DHT22;18963;51.504;5.316;2022-08-11T18:41:28;27.40;44.40
32522;DHT22;18963;51.504;5.316;2022-08-11T18:44:14;27.30;44.80
32522;DHT22;18963;51.504;5.316;2022-08-11T18:47:01;27.10;45.20
32522;DHT22;18963;51.504;5.316;2022-08-11T18:49:48;27.00;45.30
32522;DHT22;18963;51.504;5.316;2022-08-11T18:52:33;26.90;45.50
32522;DHT22;18963;51.504;5.316;2022-08-11T18:55:18;26.70;45.70
32522;DHT22;18963;51.504;5.316;2022-08-11T18:58:03;26.60;46.10
32522;DHT22;18963;51.504;5.316;2022-08-11T19:00:47;26.40;46.10
32522;DHT22;18963;51.504;5.316;2022-08-11T19:03:33;26.30;46.40
32522;DHT22;18963;51.504;5.316;2022-08-11T19:06:18;26.20;46.50
32522;DHT22;18963;51.504;5.316;2022-08-11T19:09:04;26.00;46.70
32522;DHT22;18963;51.504;5.316;2022-08-11T19:11:49;25.90;47.20
32522;DHT22;18963;51.504;5.316;2022-08-11T19:14:34;25.70;47.40
32522;DHT22;18963;51.504;5.316;2022-08-11T19:17:18;25.50;47.80
32522;DHT22;18963;51.504;5.316;2022-08-11T19:20:03;25.30;48.30
32522;DHT22;18963;51.504;5.316;2022-08-11T19:22:49;25.20;48.90
32522;DHT22;18963;51.504;5.316;2022-08-11T19:25:36;25.00;49.20
32522;DHT22;18963;51.504;5.316;2022-08-11T19:28:21;24.80;49.60
32522;DHT22;18963;51.504;5.316;2022-08-11T19:31:09;24.60;49.70
32522;DHT22;18963;51.504;5.316;2022-08-11T19:33:54;24.50;50.40
32522;DHT22;18963;51.504;5.316;2022-08-11T19:36:38;24.30;50.30
32522;DHT22;18963;51.504;5.316;2022-08-11T19:39:23;24.20;50.70
32522;DHT22;18963;51.504;5.316;2022-08-11T19:42:09;24.00;51.00
32522;DHT22;18963;51.504;5.316;2022-08-11T19:44:54;23.90;51.70
32522;DHT22;18963;51.504;5.316;2022-08-11T19:47:39;23.70;51.90
32522;DHT22;18963;51.504;5.316;2022-08-11T19:50:24;23.50;52.10